Andover, Massachusetts
Current Conditions -  °F | °C
As of 3:54 PM on Thursday 27 Nov 2014 (Local Time) from KLWM Reporting Station
Overcast Overcast  
Wind Chill: 28°   Ceiling: 2100
Heat Index: 33°   Visibility: 10mi
Dew Point: 28°   Wind: 6mph
Humidity: 82%   Direction: 330°NNW
Pressure: 29.99"   Gusts: NA
Location:  42.65°N, 71.14°W
Report Text: KLWM 272054Z 33005KT 10SM SCT016 OVC021 01/M02 A2999 RMK AO2 SLP156 T00061022 53010
Loading
Personal Weather Stations






























Interactive Weather Map New forecast layout! Learn more

10-Day Weather Forecast

Advertisements
Track Severe Weather on mobile